createdAt,value
2024-02-09T00:00:42.042Z,94975.88
2024-02-09T00:03:11.619Z,94970.28
2024-02-09T00:05:41.450Z,94967.47
2024-02-09T00:08:09.725Z,94966.09
2024-02-09T00:10:39.588Z,94964.72
2024-02-09T00:13:14.297Z,94966.78
2024-02-09T00:15:43.324Z,94968.94
2024-02-09T00:18:12.099Z,94971.63
2024-02-09T00:20:41.673Z,94970.81
2024-02-09T00:23:10.756Z,94966.34
2024-02-09T00:25:38.856Z,94954.44
2024-02-09T00:28:07.338Z,94951.78
2024-02-09T00:30:40.196Z,94953.22
2024-02-09T00:33:09.840Z,94935.00
2024-02-09T00:35:40.908Z,94925.09
2024-02-09T00:38:11.163Z,94925.03
2024-02-09T00:40:40.347Z,94928.50
2024-02-09T00:43:08.932Z,94925.59
2024-02-09T00:45:37.419Z,94916.44
2024-02-09T00:48:07.864Z,94915.75
2024-02-09T00:50:36.229Z,94913.47
2024-02-09T00:53:06.094Z,94904.75
2024-02-09T00:55:36.034Z,94909.09
2024-02-09T00:58:04.194Z,94910.94
2024-02-09T01:00:33.144Z,94910.03
2024-02-09T01:03:04.666Z,94898.84
2024-02-09T01:05:34.285Z,94895.75
2024-02-09T01:08:03.072Z,94900.09
2024-02-09T01:10:32.895Z,94896.94
2024-02-09T01:13:20.352Z,94897.16
2024-02-09T01:16:05.991Z,94890.84
2024-02-09T01:18:51.374Z,94886.72
2024-02-09T01:21:36.763Z,94876.41
2024-02-09T01:24:22.231Z,94870.59
2024-02-09T01:27:07.465Z,94866.41
2024-02-09T01:29:54.519Z,94866.22
2024-02-09T01:32:39.868Z,94863.47
2024-02-09T01:35:27.118Z,94863.16
2024-02-09T01:38:12.696Z,94863.41
2024-02-09T01:40:58.167Z,94861.53
2024-02-09T01:43:43.779Z,94854.72
2024-02-09T01:46:30.585Z,94837.53
2024-02-09T01:49:15.910Z,94843.66
2024-02-09T01:52:01.451Z,94844.41
2024-02-09T01:54:46.728Z,94829.13
2024-02-09T01:57:32.029Z,94832.28
2024-02-09T02:00:17.268Z,94819.81
2024-02-09T02:03:04.206Z,94813.94
2024-02-09T02:05:49.511Z,94805.47
2024-02-09T02:08:35.081Z,94801.81
2024-02-09T02:11:20.367Z,94795.44
2024-02-09T02:14:36.757Z,94793.91
2024-02-09T02:17:22.106Z,94793.00
2024-02-09T02:20:08.926Z,94780.16
2024-02-09T02:23:05.321Z,94777.22
2024-02-09T02:25:50.709Z,94771.69
2024-02-09T02:28:36.271Z,94769.53
2024-02-09T02:31:21.863Z,94777.66
2024-02-09T02:34:07.380Z,94757.13
2024-02-09T02:36:54.437Z,94753.00
2024-02-09T02:39:40.086Z,94754.81
2024-02-09T02:42:07.008Z,94744.97
2024-02-09T02:44:33.777Z,94739.84
2024-02-09T02:47:02.326Z,94740.44
2024-02-09T02:49:47.635Z,94737.09
2024-02-09T02:52:34.608Z,94739.16
2024-02-09T02:55:28.533Z,94738.25
2024-02-09T02:58:13.857Z,94730.84
2024-02-09T03:00:59.370Z,94730.69
2024-02-09T03:03:44.895Z,94722.53
2024-02-09T03:06:13.157Z,94719.75
2024-02-09T03:08:47.392Z,94724.69
2024-02-09T03:11:18.352Z,94712.28
2024-02-09T03:13:46.440Z,94712.16
2024-02-09T03:16:16.620Z,94708.72
2024-02-09T03:18:46.064Z,94700.28
2024-02-09T03:21:27.092Z,94704.13
2024-02-09T03:23:57.644Z,94698.94
2024-02-09T03:26:25.727Z,94704.78
2024-02-09T03:28:53.860Z,94697.13
2024-02-09T03:31:23.087Z,94692.69
2024-02-09T03:33:54.402Z,94695.00
2024-02-09T03:36:23.731Z,94687.25
2024-02-09T03:38:51.691Z,94691.56
2024-02-09T03:41:21.052Z,94690.13
2024-02-09T03:43:49.233Z,94690.56
2024-02-09T03:46:17.548Z,94682.13
2024-02-09T03:48:45.558Z,94681.28
2024-02-09T03:51:13.651Z,94675.59
2024-02-09T03:53:41.614Z,94682.31
2024-02-09T03:56:09.671Z,94677.66
2024-02-09T03:58:39.169Z,94674.53
2024-02-09T04:01:12.154Z,94676.56
2024-02-09T04:03:40.387Z,94680.00
2024-02-09T04:06:08.722Z,94673.63
2024-02-09T04:08:37.011Z,94671.97
2024-02-09T04:11:05.431Z,94674.91
2024-02-09T04:13:33.457Z,94665.84
2024-02-09T04:16:04.002Z,94679.59
2024-02-09T04:18:32.982Z,94678.94
2024-02-09T04:21:01.184Z,94682.09
2024-02-09T04:23:31.900Z,94683.84
2024-02-09T04:26:01.084Z,94670.97
2024-02-09T04:28:29.137Z,94673.63
2024-02-09T04:30:57.210Z,94675.69
2024-02-09T04:33:26.623Z,94677.47
2024-02-09T04:35:57.557Z,94676.31
2024-02-09T04:38:25.532Z,94671.56
2024-02-09T04:40:57.589Z,94663.00
2024-02-09T04:43:25.896Z,94666.25
2024-02-09T04:45:53.882Z,94673.63
2024-02-09T04:48:21.869Z,94666.63
2024-02-09T04:50:51.344Z,94673.13
2024-02-09T04:53:19.617Z,94671.00
2024-02-09T04:55:50.389Z,94654.25
2024-02-09T04:58:18.851Z,94629.63
2024-02-09T05:00:46.903Z,94651.03
2024-02-09T05:03:15.825Z,94663.38
2024-02-09T05:05:46.364Z,94658.94
2024-02-09T05:08:15.802Z,94654.50
2024-02-09T05:10:43.950Z,94663.16
2024-02-09T05:13:12.015Z,94660.50
2024-02-09T05:15:40.049Z,94656.19
2024-02-09T05:18:08.200Z,94653.25
2024-02-09T05:20:36.235Z,94636.25
2024-02-09T05:23:04.593Z,94643.75
2024-02-09T05:25:35.061Z,94633.28
2024-02-09T05:28:03.159Z,94630.44
2024-02-09T05:30:31.247Z,94629.81
2024-02-09T05:32:59.261Z,94635.91
2024-02-09T05:35:28.205Z,94630.28
2024-02-09T05:37:57.330Z,94637.03
2024-02-09T05:40:25.345Z,94636.16
2024-02-09T05:42:54.799Z,94627.72
2024-02-09T05:45:22.770Z,94630.84
2024-02-09T05:47:50.816Z,94632.72
2024-02-09T05:50:30.149Z,94643.63
2024-02-09T05:53:01.708Z,94632.50
2024-02-09T05:55:29.768Z,94626.38
2024-02-09T05:58:02.375Z,94623.91
2024-02-09T06:00:31.745Z,94633.75
2024-02-09T06:02:59.829Z,94627.78
2024-02-09T06:05:27.994Z,94621.78
2024-02-09T06:07:56.106Z,94630.41
2024-02-09T06:10:24.386Z,94626.94
2024-02-09T06:12:52.442Z,94641.69
2024-02-09T06:15:21.805Z,94642.34
2024-02-09T06:17:49.947Z,94630.66
2024-02-09T06:20:24.012Z,94634.34
2024-02-09T06:22:52.205Z,94624.66
2024-02-09T06:25:20.201Z,94626.16
2024-02-09T06:27:48.726Z,94629.59
2024-02-09T06:30:18.803Z,94622.19
2024-02-09T06:32:48.227Z,94642.53
2024-02-09T06:35:16.710Z,94631.84
2024-02-09T06:37:44.826Z,94628.16
2024-02-09T06:40:15.358Z,94625.09
2024-02-09T06:42:44.804Z,94622.25
2024-02-09T06:45:15.637Z,94609.53
2024-02-09T06:47:43.904Z,94623.06
2024-02-09T06:50:13.619Z,94621.66
2024-02-09T06:52:41.963Z,94623.06
2024-02-09T06:55:13.139Z,94613.16
2024-02-09T06:57:45.887Z,94614.78
2024-02-09T07:00:15.653Z,94613.94
2024-02-09T07:02:43.717Z,94614.34
2024-02-09T07:05:15.421Z,94616.25
2024-02-09T07:07:45.148Z,94623.00
2024-02-09T07:10:14.825Z,94624.91
2024-02-09T07:12:42.839Z,94612.50
2024-02-09T07:15:11.846Z,94616.66
2024-02-09T07:17:41.533Z,94608.22
2024-02-09T07:20:13.272Z,94609.91
2024-02-09T07:22:43.336Z,94619.34
2024-02-09T07:25:11.503Z,94609.72
2024-02-09T07:27:39.567Z,94616.28
2024-02-09T07:30:10.060Z,94622.56
2024-02-09T07:32:38.066Z,94619.34
2024-02-09T07:35:09.277Z,94609.53
2024-02-09T07:37:37.495Z,94621.19
2024-02-09T07:40:09.966Z,94609.59
2024-02-09T07:42:38.056Z,94612.56
2024-02-09T07:45:17.393Z,94614.03
2024-02-09T07:47:47.018Z,94613.44
2024-02-09T07:50:15.716Z,94615.75
2024-02-09T07:52:53.380Z,94615.09
2024-02-09T07:55:28.515Z,94613.22
2024-02-09T07:57:57.080Z,94619.19
2024-02-09T08:00:25.112Z,94614.06
2024-02-09T08:02:53.150Z,94610.22
2024-02-09T08:05:21.365Z,94612.50
2024-02-09T08:07:49.953Z,94630.56
2024-02-09T08:10:18.510Z,94620.91
2024-02-09T08:12:48.336Z,94623.09
2024-02-09T08:15:16.384Z,94622.19
2024-02-09T08:17:52.914Z,94619.69
2024-02-09T08:20:22.189Z,94609.66
2024-02-09T08:22:50.392Z,94620.34
2024-02-09T08:25:18.750Z,94617.22
2024-02-09T08:27:48.279Z,94616.00
2024-02-09T08:30:16.532Z,94621.75
2024-02-09T08:32:44.760Z,94615.38
2024-02-09T08:35:13.131Z,94618.69
2024-02-09T08:37:41.233Z,94611.69
2024-02-09T08:40:10.732Z,94622.19
2024-02-09T08:42:38.912Z,94624.28
2024-02-09T08:45:09.357Z,94618.69
2024-02-09T08:47:37.337Z,94618.88
2024-02-09T08:50:07.659Z,94608.00
2024-02-09T08:52:35.763Z,94622.38
2024-02-09T08:55:04.053Z,94631.81
2024-02-09T08:57:36.817Z,94636.41
2024-02-09T09:00:10.545Z,94637.03
2024-02-09T09:02:40.383Z,94637.66
2024-02-09T09:05:10.041Z,94627.72
2024-02-09T09:07:38.729Z,94642.97
2024-02-09T09:10:08.520Z,94626.53
2024-02-09T09:12:38.031Z,94628.56
2024-02-09T09:15:07.071Z,94626.34
2024-02-09T09:17:35.241Z,94636.41
2024-02-09T09:20:05.311Z,94640.78
2024-02-09T09:22:33.411Z,94636.03
2024-02-09T09:25:01.520Z,94630.69
2024-02-09T09:27:29.660Z,94627.84
2024-02-09T09:29:57.601Z,94621.25
2024-02-09T09:32:25.617Z,94633.00
2024-02-09T09:34:53.715Z,94627.22
2024-02-09T09:37:23.154Z,94630.91
2024-02-09T09:39:51.174Z,94631.16
2024-02-09T09:42:21.536Z,94640.00
2024-02-09T09:44:50.133Z,94643.28
2024-02-09T09:47:18.464Z,94636.69
2024-02-09T09:49:49.383Z,94633.22
2024-02-09T09:52:23.986Z,94632.19
2024-02-09T09:54:53.718Z,94632.00
2024-02-09T09:57:21.710Z,94625.38
2024-02-09T09:59:49.736Z,94630.34
2024-02-09T10:02:17.788Z,94634.25
2024-02-09T10:04:46.688Z,94640.44
2024-02-09T10:07:21.499Z,94630.34
2024-02-09T10:09:51.757Z,94622.72
2024-02-09T10:12:23.788Z,94617.16
2024-02-09T10:14:56.778Z,94618.16
2024-02-09T10:17:25.039Z,94613.00
2024-02-09T10:19:53.352Z,94622.09
2024-02-09T10:22:26.977Z,94616.72
2024-02-09T10:24:57.857Z,94621.44
2024-02-09T10:27:32.431Z,94618.59
2024-02-09T10:30:02.993Z,94623.72
2024-02-09T10:32:33.486Z,94631.78
2024-02-09T10:35:01.743Z,94630.97
2024-02-09T10:37:32.136Z,94633.22
2024-02-09T10:40:01.046Z,94633.03
2024-02-09T10:42:31.757Z,94633.22
2024-02-09T10:45:06.130Z,94637.13
2024-02-09T10:47:42.050Z,94639.81
2024-02-09T10:50:11.492Z,94638.97
2024-02-09T10:52:43.953Z,94644.75
2024-02-09T10:55:16.534Z,94645.38
2024-02-09T10:57:46.285Z,94652.19
2024-02-09T11:00:15.249Z,94643.34
2024-02-09T11:02:44.781Z,94647.44
2024-02-09T11:05:15.838Z,94650.34
2024-02-09T11:07:45.137Z,94649.06
2024-02-09T11:10:16.922Z,94647.84
2024-02-09T11:12:46.700Z,94650.13
2024-02-09T11:15:15.438Z,94653.81
2024-02-09T11:17:46.591Z,94650.53
2024-02-09T11:20:16.288Z,94650.13
2024-02-09T11:22:51.012Z,94653.41
2024-02-09T11:25:26.719Z,94649.31
2024-02-09T11:27:58.088Z,94651.34
2024-02-09T11:30:26.123Z,94646.59
2024-02-09T11:32:54.146Z,94653.00
2024-02-09T11:35:22.435Z,94650.53
2024-02-09T11:37:54.503Z,94651.38
2024-02-09T11:40:22.956Z,94647.88
2024-02-09T11:42:51.181Z,94649.06
2024-02-09T11:45:21.233Z,94648.88
2024-02-09T11:47:49.304Z,94645.59
2024-02-09T11:50:23.931Z,94652.00
2024-02-09T11:53:06.130Z,94645.78
2024-02-09T11:55:46.105Z,94643.31
2024-02-09T11:58:14.922Z,94639.59
2024-02-09T12:00:45.095Z,94640.22
2024-02-09T12:03:16.973Z,94634.66
2024-02-09T12:05:47.538Z,94638.81
2024-02-09T12:08:19.291Z,94636.72
2024-02-09T12:10:47.711Z,94640.44
2024-02-09T12:13:16.211Z,94643.53
2024-02-09T12:15:45.706Z,94647.25
2024-02-09T12:18:13.819Z,94647.84
2024-02-09T12:20:42.728Z,94645.16
2024-02-09T12:23:13.484Z,94643.34
2024-02-09T12:25:42.582Z,94653.81
2024-02-09T12:28:11.855Z,94651.97
2024-02-09T12:30:41.574Z,94649.47
2024-02-09T12:33:13.537Z,94656.50
2024-02-09T12:35:42.680Z,94656.69
2024-02-09T12:38:11.280Z,94651.75
2024-02-09T12:40:42.060Z,94661.22
2024-02-09T12:43:12.256Z,94669.88
2024-02-09T12:45:40.322Z,94662.06
2024-02-09T12:48:12.983Z,94663.09
2024-02-09T12:50:41.141Z,94663.69
2024-02-09T12:53:09.162Z,94657.53
2024-02-09T12:55:37.254Z,94656.88
2024-02-09T12:58:06.415Z,94661.63
2024-02-09T13:00:34.935Z,94662.66
2024-02-09T13:03:03.201Z,94666.59
2024-02-09T13:05:33.123Z,94657.09
2024-02-09T13:08:01.829Z,94661.84
2024-02-09T13:10:30.206Z,94660.78
2024-02-09T13:13:07.070Z,94661.13
2024-02-09T13:15:35.816Z,94655.81
2024-02-09T13:18:04.056Z,94652.06
2024-02-09T13:20:33.494Z,94658.78
2024-02-09T13:23:03.191Z,94662.34
2024-02-09T13:25:34.730Z,94652.44
2024-02-09T13:28:03.003Z,94661.81
2024-02-09T13:30:31.734Z,94651.28
2024-02-09T13:32:59.848Z,94656.63
2024-02-09T13:35:28.227Z,94658.09
2024-02-09T13:37:58.023Z,94656.63
2024-02-09T13:40:26.135Z,94659.91
2024-02-09T13:42:54.876Z,94660.94
2024-02-09T13:45:24.722Z,94656.19
2024-02-09T13:47:54.122Z,94655.78
2024-02-09T13:50:24.923Z,94648.75
2024-02-09T13:52:54.684Z,94654.56
2024-02-09T13:55:24.816Z,94654.28
2024-02-09T13:57:53.325Z,94645.69
2024-02-09T14:00:22.948Z,94639.66
2024-02-09T14:02:51.155Z,94643.78
2024-02-09T14:05:20.229Z,94639.28
2024-02-09T14:07:57.131Z,94641.72
2024-02-09T14:10:26.688Z,94642.34
2024-02-09T14:12:54.921Z,94637.56
2024-02-09T14:15:23.570Z,94641.84
2024-02-09T14:17:52.162Z,94645.00
2024-02-09T14:20:24.450Z,94643.13
2024-02-09T14:22:54.471Z,94634.03
2024-02-09T14:25:23.145Z,94635.72
2024-02-09T14:27:54.593Z,94641.28
2024-02-09T14:30:27.712Z,94642.31
2024-02-09T14:32:59.692Z,94646.47
2024-02-09T14:35:28.083Z,94644.78
2024-02-09T14:37:56.116Z,94641.44
2024-02-09T14:40:25.453Z,94639.00
2024-02-09T14:42:56.439Z,94637.78
2024-02-09T14:45:58.717Z,94636.53
2024-02-09T14:48:26.792Z,94641.72
2024-02-09T14:50:54.865Z,94642.34
2024-02-09T14:53:22.876Z,94640.94
2024-02-09T14:55:50.980Z,94646.69
2024-02-09T14:58:23.332Z,94659.25
2024-02-09T15:00:59.449Z,94644.81
2024-02-09T15:03:27.516Z,94656.19
2024-02-09T15:05:55.643Z,94653.25
2024-02-09T15:08:23.700Z,94646.06
2024-02-09T15:10:51.729Z,94653.47
2024-02-09T15:13:21.953Z,94642.06
2024-02-09T15:15:50.997Z,94646.69
2024-02-09T15:18:19.020Z,94644.78
2024-02-09T15:20:48.710Z,94641.72
2024-02-09T15:23:16.809Z,94636.56
2024-02-09T15:25:44.888Z,94632.91
2024-02-09T15:28:14.674Z,94635.56
2024-02-09T15:30:45.245Z,94633.09
2024-02-09T15:33:14.012Z,94627.97
2024-02-09T15:35:42.944Z,94628.56
2024-02-09T15:38:11.386Z,94630.13
2024-02-09T15:40:39.440Z,94632.03
2024-02-09T15:43:08.663Z,94633.06
2024-02-09T15:45:39.847Z,94639.06
2024-02-09T15:48:09.921Z,94630.78
2024-02-09T15:50:38.625Z,94629.19
2024-02-09T15:53:09.220Z,94639.47
2024-02-09T15:55:38.989Z,94636.19
2024-02-09T15:58:07.226Z,94637.63
2024-02-09T16:00:35.244Z,94628.56
2024-02-09T16:03:03.438Z,94642.78
2024-02-09T16:10:40.562Z,94639.72
2024-02-09T16:13:11.131Z,94633.53
2024-02-09T16:15:40.350Z,94631.47
2024-02-09T16:18:09.070Z,94627.19
2024-02-09T16:20:40.381Z,94617.44
2024-02-09T16:23:08.731Z,94622.03
2024-02-09T16:25:36.934Z,94618.28
2024-02-09T16:28:07.424Z,94624.53
2024-02-09T16:30:36.273Z,94623.28
2024-02-09T16:33:04.478Z,94618.78
2024-02-09T16:35:32.708Z,94619.56
2024-02-09T16:38:02.150Z,94617.91
2024-02-09T16:40:30.385Z,94611.94
2024-02-09T16:43:05.210Z,94613.38
2024-02-09T16:45:33.586Z,94611.53
2024-02-09T16:48:02.739Z,94617.72
2024-02-09T16:50:30.949Z,94619.19
2024-02-09T16:52:58.949Z,94624.56
2024-02-09T16:55:28.495Z,94627.25
2024-02-09T16:57:56.503Z,94633.22
2024-02-09T17:00:24.715Z,94641.28
2024-02-09T17:02:52.900Z,94639.22
2024-02-09T17:05:21.317Z,94633.63
2024-02-09T17:07:49.417Z,94633.44
2024-02-09T17:10:17.548Z,94629.94
2024-02-09T17:12:47.108Z,94633.00
2024-02-09T17:15:15.124Z,94638.38
2024-02-09T17:17:43.144Z,94634.88
2024-02-09T17:20:11.994Z,94637.34
2024-02-09T17:22:40.407Z,94635.91
2024-02-09T17:25:12.543Z,94637.13
2024-02-09T17:27:42.415Z,94628.28
2024-02-09T17:30:13.093Z,94637.38
2024-02-09T17:32:42.582Z,94641.28
2024-02-09T17:35:10.711Z,94636.72
2024-02-09T17:37:38.797Z,94643.13
2024-02-09T17:40:09.223Z,94642.06
2024-02-09T17:42:37.619Z,94640.84
2024-02-09T17:45:06.353Z,94640.44
2024-02-09T17:47:35.856Z,94643.31
2024-02-09T17:50:04.048Z,94645.19
2024-02-09T17:52:32.168Z,94644.97
2024-02-09T17:55:00.253Z,94639.63
2024-02-09T17:57:30.007Z,94637.75
2024-02-09T17:59:57.997Z,94648.25
2024-02-09T18:02:26.073Z,94652.41
2024-02-09T18:04:56.403Z,94657.31
2024-02-09T18:07:24.986Z,94657.72
2024-02-09T18:09:53.053Z,94656.06
2024-02-09T18:12:21.065Z,94659.56
2024-02-09T18:14:51.438Z,94658.75
2024-02-09T18:17:20.186Z,94654.44
2024-02-09T18:19:48.284Z,94657.13
2024-02-09T18:22:18.838Z,94660.41
2024-02-09T18:24:48.309Z,94655.88
2024-02-09T18:27:16.546Z,94658.78
2024-02-09T18:29:44.964Z,94654.44
2024-02-09T18:32:13.801Z,94660.81
2024-02-09T18:34:42.229Z,94655.03
2024-02-09T18:37:10.530Z,94661.44
2024-02-09T18:39:39.994Z,94652.38
2024-02-09T18:42:08.021Z,94650.94
2024-02-09T18:44:36.390Z,94644.13
2024-02-09T18:47:04.681Z,94653.41
2024-02-09T18:49:32.790Z,94655.88
2024-02-09T18:52:01.674Z,94657.75
2024-02-09T18:54:29.677Z,94654.66
2024-02-09T18:56:59.103Z,94654.44
2024-02-09T18:59:27.028Z,94656.94
2024-02-09T19:01:55.790Z,94651.75
2024-02-09T19:04:23.904Z,94650.94
2024-02-09T19:06:55.260Z,94650.13
2024-02-09T19:09:23.322Z,94644.56
2024-02-09T19:11:51.330Z,94646.22
2024-02-09T19:14:21.111Z,94643.94
2024-02-09T19:16:51.801Z,94639.59
2024-02-09T19:19:20.634Z,94634.88
2024-02-09T19:21:50.543Z,94643.94
2024-02-09T19:24:18.833Z,94642.50
2024-02-09T19:26:48.529Z,94640.63
2024-02-09T19:29:16.533Z,94641.88
2024-02-09T19:31:45.945Z,94642.91
2024-02-09T19:34:14.166Z,94646.22
2024-02-09T19:36:42.393Z,94646.41
2024-02-09T19:39:13.183Z,94648.28
2024-02-09T19:41:43.283Z,94642.50
2024-02-09T19:44:12.162Z,94643.09
2024-02-09T19:46:40.321Z,94640.03
2024-02-09T19:49:09.926Z,94642.50
2024-02-09T19:51:39.304Z,94641.06
2024-02-09T19:54:07.385Z,94650.94
2024-02-09T19:56:35.432Z,94648.66
2024-02-09T19:59:03.450Z,94648.06
2024-02-09T20:01:32.283Z,94652.78
2024-02-09T20:04:00.328Z,94646.41
2024-02-09T20:06:29.730Z,94646.84
2024-02-09T20:08:57.769Z,94653.00
2024-02-09T20:11:25.912Z,94647.84
2024-02-09T20:13:54.979Z,94650.75
2024-02-09T20:16:23.594Z,94652.38
2024-02-09T20:18:51.659Z,94649.50
2024-02-09T20:21:19.773Z,94655.88
2024-02-09T20:23:49.468Z,94653.19
2024-02-09T20:26:18.451Z,94646.00
2024-02-09T20:28:46.645Z,94650.13
2024-02-09T20:31:15.983Z,94653.63
2024-02-09T20:33:47.338Z,94657.13
2024-02-09T20:36:15.353Z,94658.34
2024-02-09T20:38:45.286Z,94656.31
2024-02-09T20:41:18.616Z,94654.22
2024-02-09T20:43:50.615Z,94646.81
2024-02-09T20:46:19.436Z,94653.19
2024-02-09T20:48:47.639Z,94658.75
2024-02-09T20:51:17.880Z,94655.88
2024-02-09T20:53:47.519Z,94658.97
2024-02-09T20:56:15.584Z,94656.09
2024-02-09T20:58:45.139Z,94659.59
2024-02-09T21:01:13.359Z,94650.53
2024-02-09T21:03:41.823Z,94659.38
2024-02-09T21:06:10.117Z,94666.81
2024-02-09T21:08:39.966Z,94656.31
2024-02-09T21:11:08.128Z,94650.53
2024-02-09T21:13:37.690Z,94649.50
2024-02-09T21:16:08.330Z,94655.06
2024-02-09T21:18:39.055Z,94654.25
2024-02-09T21:21:07.173Z,94654.25
2024-02-09T21:23:35.191Z,94657.53
2024-02-09T21:26:04.785Z,94663.31
2024-02-09T21:28:34.779Z,94657.94
2024-02-09T21:31:03.393Z,94653.63
2024-02-09T21:33:34.550Z,94654.44
2024-02-09T21:36:07.738Z,94655.66
2024-02-09T21:38:36.161Z,94664.13
2024-02-09T21:41:04.432Z,94667.84
2024-02-09T21:43:32.610Z,94654.25
2024-02-09T21:46:00.732Z,94659.19
2024-02-09T21:48:29.792Z,94656.28
2024-02-09T21:50:59.194Z,94660.41
2024-02-09T21:53:27.773Z,94655.47
2024-02-09T21:55:55.900Z,94657.13
2024-02-09T21:58:26.027Z,94655.06
2024-02-09T22:00:58.406Z,94658.97
2024-02-09T22:03:27.943Z,94651.34
2024-02-09T22:05:57.088Z,94656.94
2024-02-09T22:08:27.707Z,94659.19
2024-02-09T22:10:56.077Z,94668.66
2024-02-09T22:13:24.216Z,94668.47
2024-02-09T22:15:59.086Z,94673.84
2024-02-09T22:18:29.638Z,94664.34
2024-02-09T22:21:08.262Z,94670.13
2024-02-09T22:23:45.829Z,94677.53
2024-02-09T22:26:18.595Z,94676.50
2024-02-09T22:28:47.588Z,94681.25
2024-02-09T22:31:16.148Z,94676.91
2024-02-09T22:33:45.124Z,94680.84
2024-02-09T22:36:19.327Z,94676.50
2024-02-09T22:38:49.151Z,94678.16
2024-02-09T22:41:20.802Z,94681.66
2024-02-09T22:43:54.684Z,94690.50
2024-02-09T22:46:23.277Z,94683.91
2024-02-09T22:48:51.544Z,94695.47
2024-02-09T22:51:21.469Z,94686.81
2024-02-09T22:53:53.124Z,94690.09
2024-02-09T22:56:22.251Z,94682.66
2024-02-09T22:58:50.643Z,94684.94
2024-02-09T23:01:19.342Z,94683.50
2024-02-09T23:03:49.703Z,94686.81
2024-02-09T23:06:19.478Z,94689.09
2024-02-09T23:08:50.936Z,94688.44
2024-02-09T23:11:22.029Z,94680.41
2024-02-09T23:13:50.965Z,94691.09
2024-02-09T23:16:19.439Z,94687.44
2024-02-09T23:18:47.904Z,94695.66
2024-02-09T23:21:15.953Z,94699.78
2024-02-09T23:23:45.122Z,94698.97
2024-02-09T23:26:14.975Z,94700.00
2024-02-09T23:28:44.407Z,94697.09
2024-02-09T23:31:12.419Z,94704.09
2024-02-09T23:33:40.798Z,94700.41
2024-02-09T23:36:09.468Z,94702.88
2024-02-09T23:38:38.299Z,94706.81
2024-02-09T23:41:06.472Z,94710.69
2024-02-09T23:43:34.467Z,94708.22
2024-02-09T23:46:03.906Z,94707.00
2024-02-09T23:48:32.000Z,94706.56
2024-02-09T23:50:59.976Z,94704.69
2024-02-09T23:53:28.778Z,94704.09
2024-02-09T23:55:56.784Z,94699.38
2024-02-09T23:58:25.403Z,94703.66
